Time;durP1;ratioP1;P1;durP2;ratioP2;P2;SDS_P1;SDS_P2;PMS_P1;PMS_P2;Temp;Humidity;BMP_temperature;BMP_pressure;BME280_temperature;BME280_humidity;BME280_pressure;Samples;Min_cycle;Max_cycle;Signal;HPM_P1;HPM_P2
2022/08/31 00:04:43;;;;;;;5.25;2.15;;;;;;;;;;5003855;28;20049;-70
2022/08/31 00:07:09;;;;;;;2.47;1.95;;;;;;;;;;5001104;28;20050;-70
2022/08/31 00:09:34;;;;;;;3.75;2.30;;;;;;;;;;5003030;28;20078;-74
2022/08/31 00:12:00;;;;;;;3.10;2.03;;;;;;;;;;4999081;28;20115;-72
2022/08/31 00:14:26;;;;;;;4.05;2.10;;;;;;;;;;5006719;28;20026;-70
2022/08/31 00:16:52;;;;;;;3.35;1.80;;;;;;;;;;4997290;28;20033;-70
2022/08/31 00:19:17;;;;;;;2.67;1.90;;;;;;;;;;5004477;28;20049;-70
2022/08/31 00:21:43;;;;;;;4.80;2.10;;;;;;;;;;5003581;28;20057;-69
2022/08/31 00:24:08;;;;;;;2.45;1.80;;;;;;;;;;5000347;28;20054;-70
2022/08/31 00:26:35;;;;;;;3.30;1.90;;;;;;;;;;4999966;28;20392;-70
2022/08/31 00:29:00;;;;;;;2.70;2.13;;;;;;;;;;5000600;28;20128;-70
2022/08/31 00:31:26;;;;;;;2.83;1.58;;;;;;;;;;4999937;28;20133;-70
2022/08/31 00:33:51;;;;;;;3.33;1.75;;;;;;;;;;5003232;28;20317;-71
2022/08/31 00:36:20;;;;;;;3.80;2.00;;;;;;;;;;5003071;28;20072;-70
2022/08/31 00:38:47;;;;;;;2.47;2.10;;;;;;;;;;4994851;28;20060;-71
2022/08/31 00:41:14;;;;;;;2.20;1.88;;;;;;;;;;4982427;28;20038;-71
2022/08/31 00:43:42;;;;;;;2.40;2.00;;;;;;;;;;4999915;28;20045;-70
2022/08/31 00:46:10;;;;;;;2.83;1.60;;;;;;;;;;4997511;28;20069;-70
2022/08/31 00:48:41;;;;;;;3.33;1.88;;;;;;;;;;5002179;28;20061;-70
2022/08/31 00:51:06;;;;;;;5.10;2.05;;;;;;;;;;5000004;28;20061;-70
2022/08/31 00:53:32;;;;;;;3.10;1.98;;;;;;;;;;5001990;28;20477;-70
2022/08/31 00:55:58;;;;;;;5.43;2.00;;;;;;;;;;4998021;28;20097;-69
2022/08/31 00:58:24;;;;;;;4.88;2.20;;;;;;;;;;5002193;28;20050;-69
2022/08/31 01:00:50;;;;;;;2.53;1.98;;;;;;;;;;5002434;28;20046;-57
2022/08/31 01:03:18;;;;;;;4.22;1.80;;;;;;;;;;4998731;28;20057;-58
2022/08/31 01:05:45;;;;;;;4.18;2.33;;;;;;;;;;4996459;28;20551;-58
2022/08/31 01:08:10;;;;;;;2.95;2.00;;;;;;;;;;5003315;28;20046;-60
2022/08/31 01:10:39;;;;;;;5.80;2.30;;;;;;;;;;4997419;28;20042;-60
2022/08/31 01:13:06;;;;;;;4.50;2.05;;;;;;;;;;5000908;28;20055;-59
2022/08/31 01:15:31;;;;;;;4.07;2.10;;;;;;;;;;4997288;28;20041;-59
2022/08/31 01:18:00;;;;;;;2.72;2.03;;;;;;;;;;5001591;28;20046;-59
2022/08/31 01:21:05;;;;;;;5.20;1.75;;;;;;;;;;5000777;28;20041;-59
2022/08/31 01:23:39;;;;;;;2.70;2.00;;;;;;;;;;4988601;28;20140;-60
2022/08/31 01:26:07;;;;;;;3.20;1.90;;;;;;;;;;4993021;28;20045;-59
2022/08/31 01:28:32;;;;;;;3.75;2.35;;;;;;;;;;4993270;28;20041;-59
2022/08/31 01:30:59;;;;;;;2.78;1.83;;;;;;;;;;5008152;28;20052;-59
2022/08/31 01:33:25;;;;;;;2.90;1.90;;;;;;;;;;4998001;28;20391;-59
2022/08/31 01:35:51;;;;;;;2.08;1.58;;;;;;;;;;5007791;28;20136;-59
2022/08/31 01:38:17;;;;;;;3.40;1.75;;;;;;;;;;5000917;28;20033;-59
2022/08/31 01:40:54;;;;;;;5.05;2.00;;;;;;;;;;5002366;28;20559;-58
2022/08/31 01:43:20;;;;;;;3.97;2.08;;;;;;;;;;4997451;28;20058;-60
2022/08/31 01:45:46;;;;;;;2.83;2.05;;;;;;;;;;5000282;28;20037;-59
2022/08/31 01:48:13;;;;;;;3.40;1.95;;;;;;;;;;4998136;28;20709;-60
2022/08/31 01:50:38;;;;;;;7.05;2.00;;;;;;;;;;5001842;28;20053;-60
2022/08/31 01:53:04;;;;;;;6.43;2.08;;;;;;;;;;4998819;28;20060;-59
2022/08/31 01:55:29;;;;;;;4.78;2.00;;;;;;;;;;4999909;28;20057;-62
2022/08/31 01:57:59;;;;;;;2.03;1.83;;;;;;;;;;5000081;28;20050;-59
2022/08/31 02:00:25;;;;;;;4.72;2.00;;;;;;;;;;4997503;28;20053;-62
2022/08/31 02:02:50;;;;;;;5.55;1.92;;;;;;;;;;4999499;28;20103;-60
2022/08/31 02:05:16;;;;;;;3.28;1.85;;;;;;;;;;5002156;28;20030;-59
2022/08/31 02:07:41;;;;;;;3.45;1.77;;;;;;;;;;5002697;28;20547;-60
2022/08/31 02:10:07;;;;;;;4.60;2.20;;;;;;;;;;5001468;28;20073;-59
2022/08/31 02:12:33;;;;;;;5.25;2.03;;;;;;;;;;4999178;28;20050;-61
2022/08/31 02:14:59;;;;;;;2.97;1.75;;;;;;;;;;5004260;28;20515;-60
2022/08/31 02:17:24;;;;;;;2.72;1.75;;;;;;;;;;4983477;28;20034;-58
2022/08/31 02:19:50;;;;;;;2.80;1.55;;;;;;;;;;5003898;28;20044;-60
2022/08/31 02:22:15;;;;;;;2.83;1.98;;;;;;;;;;4999946;28;20060;-60
2022/08/31 02:24:41;;;;;;;4.30;2.00;;;;;;;;;;4999593;28;20046;-60
2022/08/31 02:27:06;;;;;;;4.28;1.88;;;;;;;;;;5001339;28;20081;-59
2022/08/31 02:29:32;;;;;;;4.25;1.90;;;;;;;;;;4999418;28;20040;-59
2022/08/31 02:31:57;;;;;;;2.17;1.83;;;;;;;;;;5002991;28;20026;-59
2022/08/31 02:34:23;;;;;;;4.32;1.80;;;;;;;;;;4997415;28;20053;-60
2022/08/31 02:36:48;;;;;;;2.03;1.67;;;;;;;;;;4998741;28;20079;-60
2022/08/31 02:39:14;;;;;;;4.80;1.98;;;;;;;;;;4997531;28;20038;-60
2022/08/31 02:41:40;;;;;;;5.40;2.10;;;;;;;;;;5001060;28;20085;-62
2022/08/31 02:44:05;;;;;;;6.45;2.15;;;;;;;;;;4999436;28;20056;-59
2022/08/31 02:46:31;;;;;;;7.47;2.35;;;;;;;;;;5005009;28;20048;-59
2022/08/31 02:48:56;;;;;;;3.03;2.20;;;;;;;;;;5002269;28;20050;-61
2022/08/31 02:51:22;;;;;;;2.85;2.08;;;;;;;;;;5000681;28;20429;-59
2022/08/31 02:53:48;;;;;;;3.20;1.80;;;;;;;;;;4998931;28;20050;-59
2022/08/31 02:56:14;;;;;;;3.80;2.00;;;;;;;;;;4999806;28;20042;-61
2022/08/31 02:58:39;;;;;;;4.80;1.88;;;;;;;;;;5003386;28;20190;-62
2022/08/31 03:01:05;;;;;;;4.97;2.13;;;;;;;;;;4984758;28;20070;-60
2022/08/31 03:03:32;;;;;;;4.22;2.35;;;;;;;;;;4985724;28;20177;-59
2022/08/31 03:05:57;;;;;;;3.90;2.13;;;;;;;;;;5001479;28;20077;-59
2022/08/31 03:08:23;;;;;;;4.93;2.03;;;;;;;;;;4998789;28;20464;-60
2022/08/31 03:10:48;;;;;;;4.40;2.22;;;;;;;;;;5001852;28;20033;-60
2022/08/31 03:13:14;;;;;;;3.08;1.85;;;;;;;;;;4994359;28;20080;-58
2022/08/31 03:15:39;;;;;;;2.53;1.80;;;;;;;;;;4995367;28;20046;-61
2022/08/31 03:18:05;;;;;;;5.00;2.22;;;;;;;;;;4985333;28;20515;-60
2022/08/31 03:20:30;;;;;;;3.88;2.17;;;;;;;;;;4998642;28;20456;-60
2022/08/31 03:22:56;;;;;;;4.78;2.10;;;;;;;;;;4995436;28;20748;-59
2022/08/31 03:25:22;;;;;;;4.70;2.22;;;;;;;;;;4998851;28;20046;-59
2022/08/31 03:27:48;;;;;;;4.45;2.30;;;;;;;;;;4994561;28;20129;-58
2022/08/31 03:30:16;;;;;;;3.08;2.17;;;;;;;;;;4991712;28;20052;-58
2022/08/31 03:32:44;;;;;;;4.05;2.20;;;;;;;;;;4998208;28;20053;-57
2022/08/31 03:35:10;;;;;;;2.42;1.85;;;;;;;;;;4993759;28;20034;-59
2022/08/31 03:37:35;;;;;;;4.05;1.83;;;;;;;;;;4994635;28;20119;-59
2022/08/31 03:40:01;;;;;;;5.45;2.20;;;;;;;;;;4996281;28;20136;-60
2022/08/31 03:42:26;;;;;;;5.68;2.10;;;;;;;;;;4996666;28;20180;-59
2022/08/31 03:44:52;;;;;;;5.18;2.33;;;;;;;;;;4996340;28;20561;-59
2022/08/31 03:47:17;;;;;;;6.57;2.28;;;;;;;;;;4998975;28;20041;-57
2022/08/31 03:49:43;;;;;;;2.85;1.77;;;;;;;;;;4994482;28;20176;-61
2022/08/31 03:52:09;;;;;;;2.55;1.88;;;;;;;;;;5000065;28;20053;-65
2022/08/31 03:54:34;;;;;;;4.00;2.15;;;;;;;;;;4998685;28;20049;-59
2022/08/31 03:57:00;;;;;;;4.57;2.53;;;;;;;;;;4998200;28;20054;-58
2022/08/31 03:59:26;;;;;;;2.75;1.90;;;;;;;;;;4996688;28;20029;-58
2022/08/31 04:01:51;;;;;;;4.75;2.17;;;;;;;;;;4995262;28;20070;-60
2022/08/31 04:04:16;;;;;;;3.83;2.30;;;;;;;;;;5003519;28;20061;-58
2022/08/31 04:06:43;;;;;;;3.42;2.10;;;;;;;;;;4995150;28;20152;-59
2022/08/31 04:09:10;;;;;;;2.95;1.77;;;;;;;;;;5001275;28;20060;-59
2022/08/31 04:11:39;;;;;;;2.83;2.00;;;;;;;;;;5000193;28;20041;-59
2022/08/31 04:14:05;;;;;;;4.63;2.38;;;;;;;;;;5002881;28;20038;-60
2022/08/31 04:16:32;;;;;;;2.78;1.95;;;;;;;;;;4996336;28;20050;-57
2022/08/31 04:18:58;;;;;;;2.90;1.98;;;;;;;;;;5004133;28;20136;-60
2022/08/31 04:21:26;;;;;;;5.00;2.22;;;;;;;;;;5001528;28;22396;-58
2022/08/31 04:23:54;;;;;;;3.25;2.05;;;;;;;;;;5000162;28;20175;-59
2022/08/31 04:26:21;;;;;;;5.80;2.63;;;;;;;;;;5002556;28;20479;-60
2022/08/31 04:28:48;;;;;;;5.35;2.45;;;;;;;;;;4999621;28;20064;-60
2022/08/31 04:31:14;;;;;;;4.07;2.33;;;;;;;;;;4994400;28;20054;-59
2022/08/31 04:33:41;;;;;;;5.20;2.25;;;;;;;;;;4983352;28;20129;-60
2022/08/31 04:36:09;;;;;;;4.88;2.08;;;;;;;;;;5001535;28;20077;-58
2022/08/31 04:38:35;;;;;;;7.25;2.40;;;;;;;;;;4996309;28;20101;-58
2022/08/31 04:41:05;;;;;;;8.00;2.47;;;;;;;;;;5005388;28;20049;-60
2022/08/31 04:43:31;;;;;;;4.15;2.40;;;;;;;;;;5002787;28;20138;-59
2022/08/31 04:45:57;;;;;;;5.45;1.88;;;;;;;;;;4999840;28;20065;-58
2022/08/31 04:48:23;;;;;;;3.30;2.25;;;;;;;;;;4997509;28;20050;-62
2022/08/31 04:50:49;;;;;;;4.90;2.42;;;;;;;;;;5003267;28;20050;-64
2022/08/31 04:53:15;;;;;;;3.08;2.17;;;;;;;;;;4999046;28;20209;-59
2022/08/31 04:55:41;;;;;;;3.58;2.10;;;;;;;;;;5002179;28;20472;-58
2022/08/31 04:58:07;;;;;;;4.57;2.70;;;;;;;;;;5008399;28;20050;-55
2022/08/31 05:00:33;;;;;;;5.97;2.47;;;;;;;;;;4998161;28;20042;-61
2022/08/31 05:02:59;;;;;;;5.32;2.30;;;;;;;;;;5002001;28;20045;-63
2022/08/31 05:05:24;;;;;;;5.57;2.83;;;;;;;;;;4986861;28;20076;-63
2022/08/31 05:07:50;;;;;;;7.18;2.40;;;;;;;;;;4998788;28;20037;-64
2022/08/31 05:10:15;;;;;;;2.97;2.38;;;;;;;;;;4981608;28;20053;-63
2022/08/31 05:12:43;;;;;;;4.20;2.33;;;;;;;;;;5004937;28;20050;-64
2022/08/31 05:15:09;;;;;;;3.58;2.65;;;;;;;;;;4982658;28;20104;-63
2022/08/31 05:17:34;;;;;;;3.28;2.40;;;;;;;;;;5000769;28;20034;-67
2022/08/31 05:20:00;;;;;;;4.07;2.60;;;;;;;;;;5004369;28;20066;-63
2022/08/31 05:22:27;;;;;;;11.10;2.78;;;;;;;;;;5002817;28;20104;-64
2022/08/31 05:24:52;;;;;;;5.60;2.65;;;;;;;;;;4998435;28;20049;-65
2022/08/31 05:27:18;;;;;;;6.75;2.45;;;;;;;;;;5002730;28;20054;-63
2022/08/31 05:29:43;;;;;;;4.68;2.75;;;;;;;;;;5002652;28;20484;-63
2022/08/31 05:32:09;;;;;;;4.50;2.88;;;;;;;;;;5000176;28;20046;-64
2022/08/31 05:34:34;;;;;;;9.93;2.67;;;;;;;;;;4999612;28;20045;-64
2022/08/31 05:37:00;;;;;;;3.70;2.47;;;;;;;;;;5002098;28;20092;-63
2022/08/31 05:39:25;;;;;;;3.03;2.72;;;;;;;;;;5000167;28;20384;-64
2022/08/31 05:41:51;;;;;;;4.40;2.85;;;;;;;;;;4997631;28;20133;-63
2022/08/31 05:44:18;;;;;;;6.60;2.92;;;;;;;;;;5000432;28;20584;-64
2022/08/31 05:46:44;;;;;;;5.28;2.88;;;;;;;;;;4997650;28;20054;-64
2022/08/31 05:49:10;;;;;;;5.10;2.60;;;;;;;;;;4984145;28;20057;-65
2022/08/31 05:51:35;;;;;;;6.90;3.55;;;;;;;;;;4998613;28;20136;-64
2022/08/31 05:54:01;;;;;;;3.53;2.85;;;;;;;;;;4986581;28;20183;-65
2022/08/31 05:56:27;;;;;;;6.50;3.00;;;;;;;;;;4999505;28;20057;-63
2022/08/31 05:58:53;;;;;;;5.25;3.22;;;;;;;;;;5000711;28;20472;-64
2022/08/31 06:01:29;;;;;;;5.13;2.80;;;;;;;;;;4997938;28;20065;-64
2022/08/31 06:03:55;;;;;;;6.55;3.22;;;;;;;;;;5000244;28;20451;-64
2022/08/31 06:06:22;;;;;;;3.83;3.08;;;;;;;;;;4998539;28;20096;-63
2022/08/31 06:08:50;;;;;;;5.97;3.63;;;;;;;;;;4999651;28;20049;-63
2022/08/31 06:11:18;;;;;;;12.38;3.70;;;;;;;;;;5001457;28;20033;-63
2022/08/31 06:13:45;;;;;;;5.55;3.63;;;;;;;;;;4999721;28;20046;-63
2022/08/31 06:16:12;;;;;;;5.10;3.53;;;;;;;;;;5002849;28;20092;-64
2022/08/31 06:18:39;;;;;;;9.57;4.10;;;;;;;;;;5001696;28;20205;-63
2022/08/31 06:21:11;;;;;;;6.75;3.22;;;;;;;;;;4998891;28;20507;-63
2022/08/31 06:23:38;;;;;;;5.80;3.90;;;;;;;;;;4996814;28;20054;-64
2022/08/31 06:26:11;;;;;;;6.30;3.75;;;;;;;;;;5002327;28;20046;-61
2022/08/31 06:28:38;;;;;;;6.63;3.75;;;;;;;;;;5003079;28;20039;-61
2022/08/31 06:31:07;;;;;;;6.47;4.07;;;;;;;;;;5003257;28;20441;-61
2022/08/31 06:33:34;;;;;;;6.43;4.10;;;;;;;;;;5003028;28;20408;-61
2022/08/31 06:36:00;;;;;;;8.25;4.10;;;;;;;;;;4997980;28;20057;-60
2022/08/31 06:38:25;;;;;;;7.68;4.00;;;;;;;;;;4998402;28;20030;-61
2022/08/31 06:40:50;;;;;;;7.78;3.92;;;;;;;;;;5007077;28;20032;-63
2022/08/31 06:43:16;;;;;;;7.97;4.00;;;;;;;;;;5000807;28;20168;-61
2022/08/31 06:45:41;;;;;;;5.63;3.30;;;;;;;;;;4999965;28;20057;-62
2022/08/31 06:48:07;;;;;;;6.10;3.70;;;;;;;;;;5001706;28;20227;-60
2022/08/31 06:50:32;;;;;;;7.57;3.72;;;;;;;;;;4984794;28;20688;-61
2022/08/31 06:52:58;;;;;;;11.13;4.35;;;;;;;;;;5001874;28;20026;-63
2022/08/31 06:55:23;;;;;;;10.13;4.18;;;;;;;;;;4994093;28;20050;-60
2022/08/31 06:57:49;;;;;;;6.53;4.00;;;;;;;;;;4979557;28;20054;-61
2022/08/31 07:00:14;;;;;;;6.93;4.07;;;;;;;;;;4996210;28;20042;-63
2022/08/31 07:02:39;;;;;;;9.40;4.30;;;;;;;;;;4995791;28;20124;-62
2022/08/31 07:05:05;;;;;;;7.10;4.03;;;;;;;;;;4996784;28;20040;-62
2022/08/31 07:07:31;;;;;;;8.73;4.28;;;;;;;;;;4999857;28;20092;-63
2022/08/31 07:09:56;;;;;;;5.72;4.60;;;;;;;;;;5009579;28;20123;-60
2022/08/31 07:12:22;;;;;;;9.88;5.22;;;;;;;;;;5004791;28;20057;-61
2022/08/31 07:14:47;;;;;;;20.20;6.00;;;;;;;;;;5003628;28;20056;-62
2022/08/31 07:17:13;;;;;;;11.73;5.03;;;;;;;;;;5008385;28;20523;-62
2022/08/31 07:19:39;;;;;;;9.77;5.45;;;;;;;;;;5005800;28;20046;-64
2022/08/31 07:22:06;;;;;;;7.07;4.90;;;;;;;;;;5008187;28;20132;-61
2022/08/31 07:24:34;;;;;;;9.30;4.93;;;;;;;;;;5000803;28;20050;-62
2022/08/31 07:27:08;;;;;;;15.23;5.47;;;;;;;;;;5005823;28;20116;-62
2022/08/31 07:29:39;;;;;;;11.50;5.25;;;;;;;;;;4998659;28;20108;-61
2022/08/31 07:32:08;;;;;;;9.68;5.53;;;;;;;;;;5001814;28;20070;-61
2022/08/31 07:34:35;;;;;;;8.48;5.03;;;;;;;;;;5000966;28;20125;-63
2022/08/31 07:42:35;;;;;;;10.80;4.63;;;;;;;;;;5009461;28;20052;-61
2022/08/31 07:45:04;;;;;;;10.55;5.10;;;;;;;;;;4998763;28;20049;-61
2022/08/31 07:47:31;;;;;;;7.65;5.00;;;;;;;;;;4998037;28;20034;-65
2022/08/31 07:49:57;;;;;;;7.32;5.00;;;;;;;;;;4998253;28;20403;-62
2022/08/31 07:52:28;;;;;;;5.18;4.57;;;;;;;;;;5004800;28;20046;-62
2022/08/31 07:55:03;;;;;;;7.90;4.80;;;;;;;;;;5000886;28;20045;-62
2022/08/31 07:57:35;;;;;;;7.13;5.18;;;;;;;;;;4998529;28;21227;-62
2022/08/31 08:00:07;;;;;;;8.73;5.47;;;;;;;;;;4991030;28;20115;-62
2022/08/31 08:02:37;;;;;;;12.38;6.18;;;;;;;;;;4975416;28;20041;-62
2022/08/31 08:05:07;;;;;;;6.10;5.50;;;;;;;;;;5001026;28;20156;-62
2022/08/31 08:07:38;;;;;;;8.90;4.88;;;;;;;;;;4997785;28;20147;-62
2022/08/31 08:10:07;;;;;;;7.60;4.50;;;;;;;;;;4985991;28;20436;-62
2022/08/31 08:12:35;;;;;;;9.45;4.78;;;;;;;;;;4997363;28;20050;-61
2022/08/31 08:15:04;;;;;;;12.57;5.70;;;;;;;;;;4995565;28;20593;-61
2022/08/31 08:17:30;;;;;;;9.40;5.53;;;;;;;;;;4998521;28;20030;-63
2022/08/31 08:19:55;;;;;;;11.25;5.47;;;;;;;;;;5005949;28;20030;-64
2022/08/31 08:22:21;;;;;;;10.63;5.57;;;;;;;;;;5002127;28;20743;-63
2022/08/31 08:24:46;;;;;;;13.05;6.22;;;;;;;;;;5000728;28;20030;-64
2022/08/31 08:27:12;;;;;;;8.00;5.78;;;;;;;;;;5002981;28;20491;-64
2022/08/31 08:29:39;;;;;;;9.82;5.97;;;;;;;;;;5004872;28;20037;-63
2022/08/31 08:32:07;;;;;;;8.13;5.63;;;;;;;;;;4997907;28;20187;-64
2022/08/31 08:34:33;;;;;;;9.60;5.88;;;;;;;;;;4999462;28;20100;-62
2022/08/31 08:36:59;;;;;;;10.07;5.95;;;;;;;;;;4982732;28;20476;-63
2022/08/31 08:39:25;;;;;;;7.32;5.55;;;;;;;;;;5001905;28;20160;-65
2022/08/31 08:41:54;;;;;;;9.57;6.07;;;;;;;;;;5002241;28;20466;-60
2022/08/31 08:44:23;;;;;;;13.32;5.97;;;;;;;;;;5000898;28;20042;-61
2022/08/31 08:46:57;;;;;;;19.13;6.68;;;;;;;;;;4999534;28;20488;-61
2022/08/31 08:49:36;;;;;;;16.73;6.00;;;;;;;;;;4997548;28;20112;-62
2022/08/31 08:52:09;;;;;;;16.85;5.63;;;;;;;;;;5003335;28;20414;-61
2022/08/31 08:54:37;;;;;;;19.20;5.90;;;;;;;;;;5000571;28;20085;-62
2022/08/31 08:57:22;;;;;;;15.25;5.53;;;;;;;;;;5003432;28;20057;-61
2022/08/31 08:59:49;;;;;;;8.45;5.18;;;;;;;;;;4998445;28;20054;-62
2022/08/31 09:02:35;;;;;;;18.83;6.40;;;;;;;;;;5002315;28;20488;-60
2022/08/31 09:05:01;;;;;;;15.45;5.70;;;;;;;;;;5007704;28;20049;-60
2022/08/31 09:07:53;;;;;;;31.85;6.38;;;;;;;;;;5007875;28;20049;-62
2022/08/31 09:10:24;;;;;;;10.48;5.20;;;;;;;;;;5000911;28;20168;-60
2022/08/31 09:12:49;;;;;;;6.97;5.72;;;;;;;;;;4999850;28;20060;-61
2022/08/31 09:15:35;;;;;;;11.75;5.28;;;;;;;;;;4980787;28;20045;-63
2022/08/31 09:18:20;;;;;;;7.90;5.47;;;;;;;;;;5003334;28;20396;-62
2022/08/31 09:21:20;;;;;;;9.98;5.85;;;;;;;;;;4997907;28;20064;-63
2022/08/31 09:23:52;;;;;;;14.90;6.13;;;;;;;;;;4972535;28;20133;-61
2022/08/31 09:26:19;;;;;;;9.18;5.40;;;;;;;;;;4999440;28;20038;-61
2022/08/31 09:28:47;;;;;;;14.30;5.22;;;;;;;;;;5007494;28;20049;-61
2022/08/31 09:31:41;;;;;;;6.35;4.70;;;;;;;;;;4983202;28;20049;-61
2022/08/31 09:34:11;;;;;;;8.10;4.85;;;;;;;;;;5001112;28;21946;-60
2022/08/31 09:36:39;;;;;;;6.43;4.55;;;;;;;;;;5003717;28;20045;-60
2022/08/31 09:39:30;;;;;;;5.80;4.78;;;;;;;;;;4994032;28;20050;-60
2022/08/31 09:42:02;;;;;;;8.52;4.75;;;;;;;;;;4997773;28;20111;-61
2022/08/31 09:44:38;;;;;;;7.32;4.90;;;;;;;;;;5000213;28;20041;-62
2022/08/31 09:47:13;;;;;;;10.55;4.90;;;;;;;;;;4981126;28;20362;-59
2022/08/31 09:49:39;;;;;;;5.65;5.05;;;;;;;;;;4998750;28;20041;-60
2022/08/31 09:55:24;;;;;;;7.65;4.70;;;;;;;;;;4994308;28;20100;-61
2022/08/31 09:58:03;;;;;;;7.50;4.63;;;;;;;;;;4995835;28;20128;-61
2022/08/31 10:00:31;;;;;;;5.65;4.45;;;;;;;;;;4997661;28;20403;-60
2022/08/31 10:03:07;;;;;;;7.90;4.85;;;;;;;;;;4995317;28;20046;-60
2022/08/31 10:05:39;;;;;;;6.10;4.07;;;;;;;;;;4997051;28;20057;-60
2022/08/31 10:08:37;;;;;;;5.68;4.50;;;;;;;;;;4999267;28;20043;-60
2022/08/31 10:11:21;;;;;;;8.35;4.75;;;;;;;;;;4973234;28;20094;-61
2022/08/31 10:13:59;;;;;;;7.35;4.97;;;;;;;;;;4996413;28;20421;-61
2022/08/31 10:16:35;;;;;;;6.53;4.93;;;;;;;;;;4999686;28;20045;-61
2022/08/31 10:19:13;;;;;;;8.40;4.78;;;;;;;;;;4988084;28;20042;-61
2022/08/31 10:21:50;;;;;;;11.38;5.45;;;;;;;;;;4995822;28;20050;-61
2022/08/31 10:24:47;;;;;;;6.78;5.25;;;;;;;;;;5001188;28;20416;-61
2022/08/31 10:27:25;;;;;;;7.53;5.53;;;;;;;;;;5003930;28;20176;-61
2022/08/31 10:29:56;;;;;;;8.02;5.88;;;;;;;;;;5006956;28;20115;-61
2022/08/31 10:32:37;;;;;;;8.43;5.20;;;;;;;;;;4998663;28;20472;-60
2022/08/31 10:35:18;;;;;;;6.80;5.78;;;;;;;;;;5005764;28;20104;-61
2022/08/31 10:37:53;;;;;;;9.98;6.15;;;;;;;;;;5007376;28;20096;-61
2022/08/31 10:40:26;;;;;;;10.25;5.40;;;;;;;;;;5003442;28;20121;-61
2022/08/31 10:43:12;;;;;;;8.15;5.95;;;;;;;;;;4998850;28;20156;-61
2022/08/31 10:45:42;;;;;;;9.38;6.10;;;;;;;;;;5001160;28;20042;-60
2022/08/31 10:48:09;;;;;;;11.95;6.85;;;;;;;;;;5002728;28;20050;-60
2022/08/31 10:51:18;;;;;;;7.88;6.43;;;;;;;;;;5006380;28;20160;-60
2022/08/31 10:54:20;;;;;;;8.65;6.05;;;;;;;;;;5007752;28;20053;-60
2022/08/31 10:56:57;;;;;;;12.32;6.80;;;;;;;;;;5003596;28;20052;-59
2022/08/31 10:59:56;;;;;;;8.40;6.22;;;;;;;;;;5004292;28;20036;-60
2022/08/31 11:02:42;;;;;;;10.32;6.90;;;;;;;;;;4998716;28;20161;-60
2022/08/31 11:05:34;;;;;;;7.57;6.30;;;;;;;;;;5006439;28;20065;-61
2022/08/31 11:08:48;;;;;;;9.20;7.03;;;;;;;;;;5003969;28;20108;-61
2022/08/31 11:11:40;;;;;;;11.10;6.85;;;;;;;;;;4996887;28;20041;-61
2022/08/31 11:14:13;;;;;;;10.77;7.07;;;;;;;;;;5000030;28;20391;-61
2022/08/31 11:17:30;;;;;;;9.43;6.40;;;;;;;;;;4999156;28;20057;-60
2022/08/31 11:20:22;;;;;;;10.00;6.30;;;;;;;;;;4928392;29;20088;-62
2022/08/31 11:23:25;;;;;;;7.53;6.40;;;;;;;;;;4984269;28;20512;-60
2022/08/31 11:26:05;;;;;;;10.45;6.10;;;;;;;;;;4999066;28;20042;-60
2022/08/31 11:28:55;;;;;;;9.82;6.00;;;;;;;;;;5001873;28;20042;-60
2022/08/31 11:31:26;;;;;;;9.73;6.30;;;;;;;;;;5000072;28;20053;-61
2022/08/31 11:33:56;;;;;;;10.80;6.20;;;;;;;;;;5002009;28;20101;-60
2022/08/31 11:36:48;;;;;;;7.43;6.15;;;;;;;;;;5006235;28;20045;-60
2022/08/31 11:39:29;;;;;;;10.20;6.72;;;;;;;;;;5001709;28;20639;-60
2022/08/31 11:41:57;;;;;;;7.70;5.65;;;;;;;;;;5002694;28;20088;-60
2022/08/31 11:44:30;;;;;;;10.35;6.10;;;;;;;;;;5005023;28;20177;-60
2022/08/31 11:47:07;;;;;;;7.10;5.25;;;;;;;;;;5003061;28;20061;-60
2022/08/31 11:49:48;;;;;;;9.05;5.75;;;;;;;;;;5007025;28;20034;-59
2022/08/31 11:52:20;;;;;;;8.07;5.63;;;;;;;;;;5000448;28;20050;-62
2022/08/31 11:54:47;;;;;;;7.88;5.38;;;;;;;;;;5003510;28;20050;-60
2022/08/31 11:57:19;;;;;;;10.50;5.78;;;;;;;;;;4999552;28;20053;-59
2022/08/31 11:59:46;;;;;;;8.32;5.93;;;;;;;;;;5004252;28;20129;-60
2022/08/31 12:02:18;;;;;;;8.77;5.95;;;;;;;;;;4998940;28;20034;-62
2022/08/31 12:04:50;;;;;;;8.52;5.70;;;;;;;;;;5003682;28;20046;-62
2022/08/31 12:07:27;;;;;;;11.07;5.50;;;;;;;;;;5003798;28;20397;-58
2022/08/31 12:10:13;;;;;;;7.18;5.60;;;;;;;;;;5003928;28;20058;-60
2022/08/31 12:13:17;;;;;;;6.78;5.10;;;;;;;;;;4998708;28;20050;-60
2022/08/31 12:16:17;;;;;;;9.20;4.50;;;;;;;;;;5003033;28;20100;-60
2022/08/31 12:18:58;;;;;;;6.75;4.95;;;;;;;;;;5001556;28;20092;-61
2022/08/31 12:24:57;;;;;;;8.30;4.63;;;;;;;;;;4997014;28;20111;-60
2022/08/31 12:27:30;;;;;;;8.13;4.70;;;;;;;;;;5002292;28;20092;-60
2022/08/31 12:30:19;;;;;;;4.63;4.13;;;;;;;;;;4999334;28;20050;-61
2022/08/31 12:32:53;;;;;;;5.30;3.75;;;;;;;;;;4990396;28;20125;-61
2022/08/31 12:35:22;;;;;;;4.93;3.53;;;;;;;;;;5002022;28;20026;-61
2022/08/31 12:38:03;;;;;;;6.88;3.50;;;;;;;;;;5003327;28;20038;-69
2022/08/31 12:40:34;;;;;;;7.43;4.05;;;;;;;;;;5005530;28;20053;-61
2022/08/31 12:43:20;;;;;;;5.55;3.88;;;;;;;;;;4997812;28;20050;-63
2022/08/31 12:46:00;;;;;;;6.97;3.30;;;;;;;;;;4982043;28;20501;-63
2022/08/31 12:48:55;;;;;;;3.40;3.10;;;;;;;;;;5003275;28;20140;-63
2022/08/31 12:51:49;;;;;;;4.72;3.55;;;;;;;;;;5001399;28;20061;-64
2022/08/31 12:54:45;;;;;;;3.08;2.60;;;;;;;;;;4996519;28;20048;-63
2022/08/31 12:57:30;;;;;;;3.40;3.10;;;;;;;;;;4999759;28;20408;-61
2022/08/31 13:00:08;;;;;;;3.38;2.67;;;;;;;;;;4995169;28;20054;-61
2022/08/31 13:02:40;;;;;;;7.80;2.72;;;;;;;;;;4989341;28;20117;-62
2022/08/31 13:05:29;;;;;;;3.85;2.53;;;;;;;;;;4998045;28;20064;-62
2022/08/31 13:07:56;;;;;;;4.93;2.78;;;;;;;;;;4983032;28;20058;-62
2022/08/31 13:10:31;;;;;;;5.03;2.60;;;;;;;;;;4997181;28;20064;-62
2022/08/31 13:13:03;;;;;;;4.30;2.70;;;;;;;;;;4997647;28;20049;-62
2022/08/31 13:15:39;;;;;;;5.50;3.38;;;;;;;;;;4999502;28;20746;-63
2022/08/31 13:18:14;;;;;;;5.72;2.90;;;;;;;;;;4997836;28;20042;-62
2022/08/31 13:20:42;;;;;;;3.40;2.55;;;;;;;;;;4997712;28;20062;-62
2022/08/31 13:23:14;;;;;;;3.53;2.55;;;;;;;;;;5000396;28;20064;-62
2022/08/31 13:25:41;;;;;;;6.07;2.92;;;;;;;;;;4978382;28;20176;-63
2022/08/31 13:28:29;;;;;;;8.05;2.80;;;;;;;;;;5001754;28;20125;-63
2022/08/31 13:31:07;;;;;;;6.68;2.67;;;;;;;;;;4991977;28;20097;-62
2022/08/31 13:33:38;;;;;;;3.95;3.08;;;;;;;;;;4995150;28;20069;-62
2022/08/31 13:36:04;;;;;;;5.68;4.90;;;;;;;;;;4996323;28;20052;-62
2022/08/31 13:39:05;;;;;;;6.60;2.70;;;;;;;;;;5001949;28;20030;-62
2022/08/31 13:41:30;;;;;;;4.20;2.78;;;;;;;;;;4995589;28;20045;-63
2022/08/31 13:44:00;;;;;;;8.13;2.63;;;;;;;;;;5004135;28;20026;-61
2022/08/31 13:46:31;;;;;;;7.18;2.78;;;;;;;;;;4997960;28;20719;-61
2022/08/31 13:49:00;;;;;;;2.95;2.50;;;;;;;;;;4993623;28;20053;-62
2022/08/31 13:51:30;;;;;;;4.43;2.40;;;;;;;;;;5001381;28;20048;-62
2022/08/31 13:53:55;;;;;;;2.55;2.35;;;;;;;;;;4998594;28;20046;-62
2022/08/31 13:59:23;;;;;;;4.25;2.55;;;;;;;;;;5000497;28;20091;-62
2022/08/31 14:02:02;;;;;;;4.45;2.63;;;;;;;;;;4994431;28;20115;-61
2022/08/31 14:07:28;;;;;;;4.00;2.38;;;;;;;;;;4982433;28;20060;-62
2022/08/31 14:10:18;;;;;;;5.15;2.45;;;;;;;;;;5001229;28;20108;-63
2022/08/31 14:12:52;;;;;;;3.95;2.47;;;;;;;;;;4997045;28;20069;-61
2022/08/31 14:15:42;;;;;;;3.97;2.33;;;;;;;;;;4992529;28;20642;-61
2022/08/31 14:18:14;;;;;;;2.45;2.25;;;;;;;;;;4988724;28;20101;-61
2022/08/31 14:20:44;;;;;;;3.60;2.53;;;;;;;;;;4996846;28;20077;-61
2022/08/31 14:23:25;;;;;;;9.13;2.70;;;;;;;;;;5003162;28;20066;-62
2022/08/31 14:26:17;;;;;;;5.13;2.35;;;;;;;;;;5003364;28;20049;-61
2022/08/31 14:28:54;;;;;;;2.90;2.10;;;;;;;;;;4984647;28;20442;-61
2022/08/31 14:31:31;;;;;;;2.40;2.10;;;;;;;;;;4992819;28;20293;-62
2022/08/31 14:34:28;;;;;;;3.83;2.28;;;;;;;;;;4996939;28;20519;-62
2022/08/31 14:37:01;;;;;;;3.97;2.10;;;;;;;;;;4982123;28;20053;-64
2022/08/31 14:39:40;;;;;;;3.22;2.08;;;;;;;;;;4996944;28;20140;-61
2022/08/31 14:42:25;;;;;;;4.30;2.15;;;;;;;;;;4995035;28;20449;-61
2022/08/31 14:44:56;;;;;;;4.68;2.45;;;;;;;;;;4984570;28;20039;-61
2022/08/31 14:47:24;;;;;;;10.18;2.38;;;;;;;;;;5000844;28;21526;-62
2022/08/31 14:49:50;;;;;;;3.65;2.42;;;;;;;;;;5000014;28;20023;-62
2022/08/31 14:52:17;;;;;;;3.00;1.77;;;;;;;;;;5000820;28;20065;-62
2022/08/31 14:54:43;;;;;;;2.25;1.77;;;;;;;;;;4998592;28;20466;-61
2022/08/31 14:57:14;;;;;;;2.42;1.95;;;;;;;;;;4982140;28;20057;-63
2022/08/31 14:59:42;;;;;;;4.05;1.92;;;;;;;;;;4989867;28;20456;-61
2022/08/31 15:02:11;;;;;;;5.85;2.28;;;;;;;;;;4997595;28;20548;-60
2022/08/31 15:04:37;;;;;;;3.55;2.03;;;;;;;;;;4999082;28;20137;-62
2022/08/31 15:07:04;;;;;;;3.70;2.30;;;;;;;;;;5002754;28;20474;-61
2022/08/31 15:09:40;;;;;;;2.85;2.00;;;;;;;;;;5003771;28;20042;-60
2022/08/31 15:12:06;;;;;;;2.20;2.00;;;;;;;;;;5001960;28;20539;-60
2022/08/31 15:14:35;;;;;;;3.15;1.88;;;;;;;;;;5000454;28;20034;-60
2022/08/31 15:17:04;;;;;;;3.97;2.20;;;;;;;;;;5000017;28;20054;-61
2022/08/31 15:19:32;;;;;;;7.60;2.42;;;;;;;;;;5001313;28;20171;-65
2022/08/31 15:22:01;;;;;;;4.10;2.20;;;;;;;;;;5001522;28;20156;-64
2022/08/31 15:24:29;;;;;;;2.75;2.10;;;;;;;;;;4983185;28;20045;-61
2022/08/31 15:26:57;;;;;;;4.85;2.30;;;;;;;;;;5002234;28;20050;-61